Airfield :
LOGIN :

Register | Disclaimer

   EN    FR    IT 

 










Legend :    VFR   Marginal VFR   IFR   Intensive IFR   Very Intensive IFR
Visi :
Ceiling :
>= 8 km
>= 3000ft
5 to 8 km
1000 to 3000 ft
1500m to 5 km
500 to 1000 ft
800 to 1500m
200 to 500 ft
< 800m
< 200 ft
Symbols :   Thunderstorms  Fog  Heavy snow  Heavy precipitations  Wind > 20 kt
SIGMETs :     Misc.  Thunderstorms  Icing  Turbulence  Mountain Waves  Volcanic Ashes







- Airport Elevation : 616 ft
- IATA code : PUF
- Download approach charts


LFBP - Pau

CURRENT METAR :
  • 230130Z AUTO VRB02KT 7000 NSC 13/13 Q1019 BECMG BKN008

EXPIRED METARs :
  • 230100Z AUTO 27001KT 8000 NSC 13/12 Q1019 BECMG BKN008
  • 230030Z AUTO 30004KT 9000 NSC 13/12 Q1019 BECMG BKN008
  • 230000Z AUTO 29004KT CAVOK 14/12 Q1019 BECMG BKN008
  • 222330Z AUTO 28004KT CAVOK 14/12 Q1019 BECMG BKN008
  • 222300Z AUTO 24006KT CAVOK 15/12 Q1019 TEMPO FEW060CB BKN080TCU

TAF AMD TAF LFBP
Valid from the 23 at 01:00 until the 24 at 00:00 UTC


230120Z 2301/2324 28007KT CAVOK
PROB40
TEMPO 2301/2308 4000 BR BKN008
TEMPO 2308/2312 BKN013
BECMG 2312/2314 36005KT SCT030
No reported NOTAMs for that airfield.



MET'MAP, your aeronautical weather chart ! - Copyright ORBIFLY December 2007 - Disclaimer

ORBIFLY MET'MAP TEAM :

Programming & Development : Alexandra Zaïnal
Concept & Development : Baudouin d'Aumeries
Co-Development & Prog : Marc-Olivier Méhu
Technical & hardware support : Manuel Goepfert

Contact : metmap@orbifly.com




SOURCES & CREDITS :

   NOAA